sensor_id;sensor_type;location;lat;lon;timestamp;pressure;altitude;pressure_sealevel;temperature;humidity
71151;BME280;59071;42.138;24.768;2023-01-27T00:02:21;98991.94;;;1.75;93.90
71151;BME280;59071;42.138;24.768;2023-01-27T00:04:46;98988.03;;;1.87;93.92
71151;BME280;59071;42.138;24.768;2023-01-27T00:07:11;99001.94;;;1.88;93.50
71151;BME280;59071;42.138;24.768;2023-01-27T00:09:37;99006.38;;;1.95;91.83
71151;BME280;59071;42.138;24.768;2023-01-27T00:12:02;99012.63;;;1.94;92.87
71151;BME280;59071;42.138;24.768;2023-01-27T00:14:46;99006.03;;;2.07;92.77
71151;BME280;59071;42.138;24.768;2023-01-27T00:17:11;99008.81;;;2.05;92.77
71151;BME280;59071;42.138;24.768;2023-01-27T00:19:36;98999.00;;;1.99;92.89
71151;BME280;59071;42.138;24.768;2023-01-27T00:22:02;98994.06;;;1.96;92.85
71151;BME280;59071;42.138;24.768;2023-01-27T00:24:46;98987.53;;;1.84;93.44
71151;BME280;59071;42.138;24.768;2023-01-27T00:27:11;98987.34;;;1.93;92.49
71151;BME280;59071;42.138;24.768;2023-01-27T00:29:37;98970.31;;;1.73;93.35
71151;BME280;59071;42.138;24.768;2023-01-27T00:32:02;98959.50;;;1.68;93.43
71151;BME280;59071;42.138;24.768;2023-01-27T00:34:46;98960.81;;;1.55;93.42
71151;BME280;59071;42.138;24.768;2023-01-27T00:37:12;98967.06;;;1.63;93.51
71151;BME280;59071;42.138;24.768;2023-01-27T00:39:37;98966.72;;;1.74;93.39
71151;BME280;59071;42.138;24.768;2023-01-27T00:42:02;98971.13;;;1.65;92.48
71151;BME280;59071;42.138;24.768;2023-01-27T00:44:28;98976.84;;;1.77;92.06
71151;BME280;59071;42.138;24.768;2023-01-27T00:46:53;98974.25;;;1.69;91.41
71151;BME280;59071;42.138;24.768;2023-01-27T00:49:18;98966.53;;;1.67;91.41
71151;BME280;59071;42.138;24.768;2023-01-27T00:51:44;98961.16;;;1.61;92.73
71151;BME280;59071;42.138;24.768;2023-01-27T00:54:09;98975.22;;;1.60;93.71
71151;BME280;59071;42.138;24.768;2023-01-27T00:56:34;98973.44;;;1.76;90.63
71151;BME280;59071;42.138;24.768;2023-01-27T00:59:00;98953.28;;;1.52;92.43
71151;BME280;59071;42.138;24.768;2023-01-27T01:01:25;98946.41;;;1.68;93.06
71151;BME280;59071;42.138;24.768;2023-01-27T01:03:51;98937.03;;;1.73;90.46
71151;BME280;59071;42.138;24.768;2023-01-27T01:06:16;98930.75;;;1.99;89.41
71151;BME280;59071;42.138;24.768;2023-01-27T01:08:42;98900.25;;;1.98;90.64
71151;BME280;59071;42.138;24.768;2023-01-27T01:11:08;98892.09;;;1.85;92.40
71151;BME280;59071;42.138;24.768;2023-01-27T01:13:34;98893.09;;;1.67;92.88
71151;BME280;59071;42.138;24.768;2023-01-27T01:16:07;98892.25;;;1.83;90.81
71151;BME280;59071;42.138;24.768;2023-01-27T01:18:33;98893.50;;;2.12;88.05
71151;BME280;59071;42.138;24.768;2023-01-27T01:20:58;98935.78;;;2.25;87.72
71151;BME280;59071;42.138;24.768;2023-01-27T01:23:24;98958.88;;;2.30;86.94
71151;BME280;59071;42.138;24.768;2023-01-27T01:25:52;98969.53;;;2.28;87.04
71151;BME280;59071;42.138;24.768;2023-01-27T01:28:18;98957.59;;;2.65;85.99
71151;BME280;59071;42.138;24.768;2023-01-27T01:30:44;98969.69;;;2.35;87.33
71151;BME280;59071;42.138;24.768;2023-01-27T01:33:09;98972.44;;;2.50;85.56
71151;BME280;59071;42.138;24.768;2023-01-27T01:35:36;98965.06;;;2.53;85.77
71151;BME280;59071;42.138;24.768;2023-01-27T01:38:01;98953.47;;;2.71;84.48
71151;BME280;59071;42.138;24.768;2023-01-27T01:40:26;98934.81;;;2.58;84.45
71151;BME280;59071;42.138;24.768;2023-01-27T01:50:43;98923.63;;;3.18;81.13
71151;BME280;59071;42.138;24.768;2023-01-27T01:53:09;98909.16;;;3.37;79.88
71151;BME280;59071;42.138;24.768;2023-01-27T01:55:35;98904.78;;;3.06;81.08
71151;BME280;59071;42.138;24.768;2023-01-27T01:58:01;98898.31;;;3.17;80.96
71151;BME280;59071;42.138;24.768;2023-01-27T02:00:28;98900.94;;;3.17;80.55
71151;BME280;59071;42.138;24.768;2023-01-27T02:02:53;98896.00;;;3.14;80.98
71151;BME280;59071;42.138;24.768;2023-01-27T02:05:26;98901.50;;;3.04;80.83
71151;BME280;59071;42.138;24.768;2023-01-27T02:07:53;98905.31;;;2.79;81.12
71151;BME280;59071;42.138;24.768;2023-01-27T02:10:21;98898.47;;;3.16;80.95
71151;BME280;59071;42.138;24.768;2023-01-27T02:12:46;98877.56;;;3.22;80.50
71151;BME280;59071;42.138;24.768;2023-01-27T02:15:12;98885.28;;;3.01;80.77
71151;BME280;59071;42.138;24.768;2023-01-27T02:17:37;98891.00;;;3.04;79.56
71151;BME280;59071;42.138;24.768;2023-01-27T02:25:25;98857.84;;;2.49;80.46
71151;BME280;59071;42.138;24.768;2023-01-27T02:27:53;98854.22;;;2.19;84.77
71151;BME280;59071;42.138;24.768;2023-01-27T02:30:18;98845.75;;;2.40;82.87
71151;BME280;59071;42.138;24.768;2023-01-27T02:32:43;98837.88;;;2.40;83.22
71151;BME280;59071;42.138;24.768;2023-01-27T02:35:10;98842.06;;;2.80;83.06
71151;BME280;59071;42.138;24.768;2023-01-27T02:37:37;98854.53;;;2.55;81.66
71151;BME280;59071;42.138;24.768;2023-01-27T02:40:03;98860.97;;;2.21;81.14
71151;BME280;59071;42.138;24.768;2023-01-27T02:42:28;98856.22;;;2.17;84.66
71151;BME280;59071;42.138;24.768;2023-01-27T02:44:54;98843.81;;;2.65;85.76
71151;BME280;59071;42.138;24.768;2023-01-27T02:47:19;98845.47;;;3.27;86.69
71151;BME280;59071;42.138;24.768;2023-01-27T02:49:45;98866.41;;;3.58;84.32
71151;BME280;59071;42.138;24.768;2023-01-27T02:52:10;98857.81;;;3.94;81.91
71151;BME280;59071;42.138;24.768;2023-01-27T02:54:35;98840.94;;;3.21;86.98
71151;BME280;59071;42.138;24.768;2023-01-27T02:57:00;98847.66;;;2.54;88.19
71151;BME280;59071;42.138;24.768;2023-01-27T02:59:26;98856.66;;;2.60;89.32
71151;BME280;59071;42.138;24.768;2023-01-27T03:01:51;98853.13;;;2.44;88.80
71151;BME280;59071;42.138;24.768;2023-01-27T03:04:16;98834.50;;;2.23;90.34
71151;BME280;59071;42.138;24.768;2023-01-27T03:06:42;98833.94;;;2.90;89.53
71151;BME280;59071;42.138;24.768;2023-01-27T03:09:07;98816.72;;;3.10;87.25
71151;BME280;59071;42.138;24.768;2023-01-27T03:11:32;98824.03;;;2.54;88.33
71151;BME280;59071;42.138;24.768;2023-01-27T03:14:16;98819.31;;;2.41;87.94
71151;BME280;59071;42.138;24.768;2023-01-27T03:16:41;98821.31;;;2.62;90.32
71151;BME280;59071;42.138;24.768;2023-01-27T03:19:25;98814.84;;;2.96;86.60
71151;BME280;59071;42.138;24.768;2023-01-27T03:21:53;98830.63;;;2.42;89.33
71151;BME280;59071;42.138;24.768;2023-01-27T03:24:20;98834.19;;;2.57;91.22
71151;BME280;59071;42.138;24.768;2023-01-27T03:26:45;98857.13;;;2.63;89.87
71151;BME280;59071;42.138;24.768;2023-01-27T03:29:10;98867.00;;;2.61;88.93
71151;BME280;59071;42.138;24.768;2023-01-27T03:31:54;98856.88;;;2.50;89.40
71151;BME280;59071;42.138;24.768;2023-01-27T03:34:19;98854.41;;;2.48;90.02
71151;BME280;59071;42.138;24.768;2023-01-27T03:36:44;98845.97;;;2.30;90.71
71151;BME280;59071;42.138;24.768;2023-01-27T03:39:28;98836.31;;;2.30;91.73
71151;BME280;59071;42.138;24.768;2023-01-27T03:42:12;98843.44;;;2.45;92.62
71151;BME280;59071;42.138;24.768;2023-01-27T03:44:56;98850.34;;;2.46;91.35
71151;BME280;59071;42.138;24.768;2023-01-27T03:47:40;98845.66;;;2.33;92.37
71151;BME280;59071;42.138;24.768;2023-01-27T03:50:06;98839.28;;;2.27;91.67
71151;BME280;59071;42.138;24.768;2023-01-27T03:52:35;98845.91;;;2.46;91.54
71151;BME280;59071;42.138;24.768;2023-01-27T03:55:00;98847.00;;;2.52;91.13
71151;BME280;59071;42.138;24.768;2023-01-27T03:57:26;98851.97;;;2.47;92.10
71151;BME280;59071;42.138;24.768;2023-01-27T03:59:51;98845.09;;;2.46;92.01
71151;BME280;59071;42.138;24.768;2023-01-27T04:02:16;98835.50;;;2.53;92.78
71151;BME280;59071;42.138;24.768;2023-01-27T04:05:00;98848.88;;;2.66;91.97
71151;BME280;59071;42.138;24.768;2023-01-27T04:07:44;98825.13;;;2.60;92.25
71151;BME280;59071;42.138;24.768;2023-01-27T04:10:09;98813.28;;;2.64;91.87
71151;BME280;59071;42.138;24.768;2023-01-27T04:12:35;98816.47;;;2.51;92.01
71151;BME280;59071;42.138;24.768;2023-01-27T04:15:00;98823.84;;;2.56;91.15
71151;BME280;59071;42.138;24.768;2023-01-27T04:17:25;98816.31;;;2.52;91.52
71151;BME280;59071;42.138;24.768;2023-01-27T04:19:50;98817.09;;;2.61;91.43
71151;BME280;59071;42.138;24.768;2023-01-27T04:22:16;98819.50;;;2.40;92.40
71151;BME280;59071;42.138;24.768;2023-01-27T04:24:41;98815.34;;;2.22;92.40
71151;BME280;59071;42.138;24.768;2023-01-27T04:27:07;98816.34;;;2.21;92.90
71151;BME280;59071;42.138;24.768;2023-01-27T04:29:34;98810.28;;;2.12;92.72
71151;BME280;59071;42.138;24.768;2023-01-27T04:32:00;98811.38;;;2.26;92.54
71151;BME280;59071;42.138;24.768;2023-01-27T04:34:27;98800.38;;;2.23;92.81
71151;BME280;59071;42.138;24.768;2023-01-27T04:36:53;98792.13;;;2.34;92.59
71151;BME280;59071;42.138;24.768;2023-01-27T04:39:18;98797.44;;;2.26;92.05
71151;BME280;59071;42.138;24.768;2023-01-27T04:41:43;98797.66;;;2.16;92.82
71151;BME280;59071;42.138;24.768;2023-01-27T04:44:09;98794.00;;;2.25;92.68
71151;BME280;59071;42.138;24.768;2023-01-27T04:46:35;98803.22;;;2.44;91.19
71151;BME280;59071;42.138;24.768;2023-01-27T04:49:01;98797.91;;;2.29;91.59
71151;BME280;59071;42.138;24.768;2023-01-27T04:51:26;98803.09;;;2.38;90.46
71151;BME280;59071;42.138;24.768;2023-01-27T04:53:52;98806.75;;;2.28;90.28
71151;BME280;59071;42.138;24.768;2023-01-27T04:58:45;98797.84;;;2.38;88.21
71151;BME280;59071;42.138;24.768;2023-01-27T05:01:11;98795.88;;;2.40;89.50
71151;BME280;59071;42.138;24.768;2023-01-27T05:03:36;98783.97;;;2.75;87.03
71151;BME280;59071;42.138;24.768;2023-01-27T05:06:01;98791.22;;;2.73;88.29
71151;BME280;59071;42.138;24.768;2023-01-27T05:08:26;98797.97;;;2.67;87.88
71151;BME280;59071;42.138;24.768;2023-01-27T05:10:52;98808.72;;;2.81;86.23
71151;BME280;59071;42.138;24.768;2023-01-27T05:13:17;98823.84;;;2.79;85.94
71151;BME280;59071;42.138;24.768;2023-01-27T05:15:42;98815.00;;;2.94;85.68
71151;BME280;59071;42.138;24.768;2023-01-27T05:18:07;98819.75;;;2.99;85.28
71151;BME280;59071;42.138;24.768;2023-01-27T05:20:33;98828.91;;;3.03;84.49
71151;BME280;59071;42.138;24.768;2023-01-27T05:22:58;98841.00;;;3.50;89.94
71151;BME280;59071;42.138;24.768;2023-01-27T05:25:45;98834.09;;;3.11;85.90
71151;BME280;59071;42.138;24.768;2023-01-27T05:28:12;98839.22;;;3.28;85.43
71151;BME280;59071;42.138;24.768;2023-01-27T05:30:37;98837.19;;;3.15;86.92
71151;BME280;59071;42.138;24.768;2023-01-27T05:33:03;98827.91;;;3.42;85.10
71151;BME280;59071;42.138;24.768;2023-01-27T05:35:28;98826.81;;;2.99;86.66
71151;BME280;59071;42.138;24.768;2023-01-27T05:37:56;98834.88;;;2.97;85.76
71151;BME280;59071;42.138;24.768;2023-01-27T05:40:21;98841.72;;;2.83;86.20
71151;BME280;59071;42.138;24.768;2023-01-27T05:42:47;98831.50;;;2.88;85.13
71151;BME280;59071;42.138;24.768;2023-01-27T05:45:12;98835.41;;;2.92;85.42
71151;BME280;59071;42.138;24.768;2023-01-27T05:47:37;98824.47;;;3.04;83.60
71151;BME280;59071;42.138;24.768;2023-01-27T05:50:03;98830.03;;;3.09;83.71
71151;BME280;59071;42.138;24.768;2023-01-27T05:52:28;98844.63;;;3.11;82.98
71151;BME280;59071;42.138;24.768;2023-01-27T05:54:53;98840.16;;;2.97;85.55
71151;BME280;59071;42.138;24.768;2023-01-27T05:57:18;98835.56;;;2.91;87.42
71151;BME280;59071;42.138;24.768;2023-01-27T05:59:44;98840.19;;;2.89;87.36
71151;BME280;59071;42.138;24.768;2023-01-27T06:02:09;98835.16;;;2.79;88.53
71151;BME280;59071;42.138;24.768;2023-01-27T06:04:35;98838.34;;;2.74;88.03
71151;BME280;59071;42.138;24.768;2023-01-27T06:07:00;98840.78;;;2.76;88.74
71151;BME280;59071;42.138;24.768;2023-01-27T06:09:25;98828.19;;;3.09;88.18
71151;BME280;59071;42.138;24.768;2023-01-27T06:11:51;98818.69;;;2.85;89.62
71151;BME280;59071;42.138;24.768;2023-01-27T06:14:16;98812.75;;;2.91;88.50
71151;BME280;59071;42.138;24.768;2023-01-27T06:16:43;98807.94;;;2.95;88.80
71151;BME280;59071;42.138;24.768;2023-01-27T06:19:11;98804.09;;;2.83;88.90
71151;BME280;59071;42.138;24.768;2023-01-27T06:21:36;98819.06;;;2.82;90.01
71151;BME280;59071;42.138;24.768;2023-01-27T06:24:01;98821.41;;;2.77;90.46
71151;BME280;59071;42.138;24.768;2023-01-27T06:26:28;98847.56;;;2.70;91.34
71151;BME280;59071;42.138;24.768;2023-01-27T06:28:54;98845.22;;;2.76;91.60
71151;BME280;59071;42.138;24.768;2023-01-27T06:31:20;98836.22;;;2.93;90.97
71151;BME280;59071;42.138;24.768;2023-01-27T06:33:45;98838.41;;;3.04;91.22
71151;BME280;59071;42.138;24.768;2023-01-27T06:36:11;98838.13;;;3.22;90.22
71151;BME280;59071;42.138;24.768;2023-01-27T06:38:37;98834.09;;;3.49;89.79
71151;BME280;59071;42.138;24.768;2023-01-27T06:41:02;98834.91;;;3.35;89.61
71151;BME280;59071;42.138;24.768;2023-01-27T06:43:27;98828.28;;;3.39;89.01
71151;BME280;59071;42.138;24.768;2023-01-27T06:45:53;98845.34;;;3.58;88.85
71151;BME280;59071;42.138;24.768;2023-01-27T06:48:18;98834.44;;;3.46;88.92
71151;BME280;59071;42.138;24.768;2023-01-27T06:50:44;98831.09;;;3.52;88.92
71151;BME280;59071;42.138;24.768;2023-01-27T06:53:10;98827.09;;;3.57;89.07
71151;BME280;59071;42.138;24.768;2023-01-27T06:55:36;98829.63;;;3.65;88.63
71151;BME280;59071;42.138;24.768;2023-01-27T06:58:08;98831.00;;;3.76;88.52
71151;BME280;59071;42.138;24.768;2023-01-27T07:00:34;98831.91;;;3.53;88.83
71151;BME280;59071;42.138;24.768;2023-01-27T07:03:00;98833.72;;;3.82;87.57
71151;BME280;59071;42.138;24.768;2023-01-27T07:05:26;98826.56;;;3.91;87.38
71151;BME280;59071;42.138;24.768;2023-01-27T07:07:51;98842.97;;;4.08;86.70
71151;BME280;59071;42.138;24.768;2023-01-27T07:10:16;98840.13;;;4.24;85.99
71151;BME280;59071;42.138;24.768;2023-01-27T07:12:42;98841.34;;;4.07;87.07
71151;BME280;59071;42.138;24.768;2023-01-27T07:15:08;98830.09;;;3.83;87.88
71151;BME280;59071;42.138;24.768;2023-01-27T07:17:33;98842.97;;;4.08;87.65
71151;BME280;59071;42.138;24.768;2023-01-27T07:19:59;98838.19;;;3.97;87.18
71151;BME280;59071;42.138;24.768;2023-01-27T07:22:25;98843.88;;;4.15;87.15
71151;BME280;59071;42.138;24.768;2023-01-27T07:24:50;98849.22;;;4.22;90.59
71151;BME280;59071;42.138;24.768;2023-01-27T07:27:16;98846.50;;;4.88;94.36
71151;BME280;59071;42.138;24.768;2023-01-27T07:29:41;98845.88;;;5.36;91.95
71151;BME280;59071;42.138;24.768;2023-01-27T07:32:06;98837.09;;;5.57;81.46
71151;BME280;59071;42.138;24.768;2023-01-27T07:34:31;98840.25;;;5.39;81.42
71151;BME280;59071;42.138;24.768;2023-01-27T07:36:57;98836.00;;;5.16;85.08
71151;BME280;59071;42.138;24.768;2023-01-27T07:39:22;98839.25;;;5.18;85.84
71151;BME280;59071;42.138;24.768;2023-01-27T07:41:48;98840.00;;;5.12;85.00
71151;BME280;59071;42.138;24.768;2023-01-27T07:44:13;98838.41;;;4.89;85.42
71151;BME280;59071;42.138;24.768;2023-01-27T07:46:39;98835.50;;;5.06;85.59
71151;BME280;59071;42.138;24.768;2023-01-27T07:49:04;98830.69;;;4.88;85.10
71151;BME280;59071;42.138;24.768;2023-01-27T07:51:29;98827.22;;;5.09;83.92
71151;BME280;59071;42.138;24.768;2023-01-27T07:53:54;98832.44;;;5.59;84.39
71151;BME280;59071;42.138;24.768;2023-01-27T07:56:20;98828.06;;;5.73;79.44
71151;BME280;59071;42.138;24.768;2023-01-27T07:58:45;98822.59;;;5.46;79.31
71151;BME280;59071;42.138;24.768;2023-01-27T08:01:11;98824.19;;;5.40;79.80
71151;BME280;59071;42.138;24.768;2023-01-27T08:03:36;98828.09;;;5.16;80.17
71151;BME280;59071;42.138;24.768;2023-01-27T08:06:03;98822.22;;;5.21;80.02
71151;BME280;59071;42.138;24.768;2023-01-27T08:08:28;98822.22;;;5.21;80.47
71151;BME280;59071;42.138;24.768;2023-01-27T08:10:53;98827.56;;;5.06;80.76
71151;BME280;59071;42.138;24.768;2023-01-27T08:13:22;98831.97;;;4.99;81.32
71151;BME280;59071;42.138;24.768;2023-01-27T08:15:53;98832.66;;;5.07;80.84
71151;BME280;59071;42.138;24.768;2023-01-27T08:18:18;98834.94;;;4.89;80.82
71151;BME280;59071;42.138;24.768;2023-01-27T08:20:44;98820.13;;;4.88;81.34
71151;BME280;59071;42.138;24.768;2023-01-27T08:23:09;98825.16;;;4.83;82.05
71151;BME280;59071;42.138;24.768;2023-01-27T08:25:34;98814.34;;;4.56;82.04
71151;BME280;59071;42.138;24.768;2023-01-27T08:27:59;98802.19;;;4.55;82.29
71151;BME280;59071;42.138;24.768;2023-01-27T08:30:25;98797.53;;;4.79;82.08
71151;BME280;59071;42.138;24.768;2023-01-27T08:32:50;98790.06;;;4.82;81.61
71151;BME280;59071;42.138;24.768;2023-01-27T08:35:16;98782.16;;;4.82;82.41
71151;BME280;59071;42.138;24.768;2023-01-27T08:37:41;98773.13;;;4.92;82.25
71151;BME280;59071;42.138;24.768;2023-01-27T08:40:07;98777.84;;;4.75;83.34
71151;BME280;59071;42.138;24.768;2023-01-27T08:42:32;98777.09;;;4.59;84.06
71151;BME280;59071;42.138;24.768;2023-01-27T08:44:57;98778.56;;;4.90;83.16
71151;BME280;59071;42.138;24.768;2023-01-27T08:47:24;98780.44;;;4.96;83.05
71151;BME280;59071;42.138;24.768;2023-01-27T08:49:49;98786.28;;;4.70;83.77
71151;BME280;59071;42.138;24.768;2023-01-27T08:52:15;98791.28;;;4.80;84.75
71151;BME280;59071;42.138;24.768;2023-01-27T08:54:40;98793.53;;;4.61;84.87
71151;BME280;59071;42.138;24.768;2023-01-27T08:57:05;98798.41;;;4.64;84.28
71151;BME280;59071;42.138;24.768;2023-01-27T08:59:31;98805.38;;;4.72;84.83
71151;BME280;59071;42.138;24.768;2023-01-27T09:01:56;98812.47;;;4.72;84.12
71151;BME280;59071;42.138;24.768;2023-01-27T09:04:21;98806.38;;;4.71;84.69
71151;BME280;59071;42.138;24.768;2023-01-27T09:06:47;98798.91;;;4.75;84.81
71151;BME280;59071;42.138;24.768;2023-01-27T09:09:14;98796.03;;;4.69;84.60
71151;BME280;59071;42.138;24.768;2023-01-27T09:11:40;98795.44;;;4.96;84.01
71151;BME280;59071;42.138;24.768;2023-01-27T09:14:06;98803.03;;;5.05;83.40
71151;BME280;59071;42.138;24.768;2023-01-27T09:16:31;98808.78;;;5.16;82.55
71151;BME280;59071;42.138;24.768;2023-01-27T09:18:56;98801.53;;;4.96;83.58
71151;BME280;59071;42.138;24.768;2023-01-27T09:21:22;98795.16;;;5.40;82.64
71151;BME280;59071;42.138;24.768;2023-01-27T09:23:48;98785.00;;;5.09;82.33
71151;BME280;59071;42.138;24.768;2023-01-27T09:26:13;98783.59;;;5.06;82.71
71151;BME280;59071;42.138;24.768;2023-01-27T09:28:39;98775.28;;;5.09;82.77
71151;BME280;59071;42.138;24.768;2023-01-27T09:31:04;98766.06;;;5.27;82.44
71151;BME280;59071;42.138;24.768;2023-01-27T09:33:29;98764.00;;;5.22;82.38
71151;BME280;59071;42.138;24.768;2023-01-27T09:35:58;98765.06;;;5.28;80.87
71151;BME280;59071;42.138;24.768;2023-01-27T09:38:25;98747.91;;;5.11;81.87
71151;BME280;59071;42.138;24.768;2023-01-27T09:40:56;98749.66;;;5.03;82.66
71151;BME280;59071;42.138;24.768;2023-01-27T09:51:15;98744.41;;;5.38;81.46
71151;BME280;59071;42.138;24.768;2023-01-27T09:56:21;98747.22;;;5.02;82.03
71151;BME280;59071;42.138;24.768;2023-01-27T10:01:28;98753.16;;;4.82;83.17
71151;BME280;59071;42.138;24.768;2023-01-27T10:11:36;98740.59;;;5.13;82.47
71151;BME280;59071;42.138;24.768;2023-01-27T10:14:08;98733.50;;;5.13;81.67
71151;BME280;59071;42.138;24.768;2023-01-27T10:26:50;98722.84;;;4.93;83.49
71151;BME280;59071;42.138;24.768;2023-01-27T10:29:26;98708.72;;;5.42;82.96
71151;BME280;59071;42.138;24.768;2023-01-27T10:31:55;98701.94;;;5.26;82.71
71151;BME280;59071;42.138;24.768;2023-01-27T10:39:40;98697.88;;;5.24;82.29
71151;BME280;59071;42.138;24.768;2023-01-27T10:42:23;98704.63;;;5.33;83.15
71151;BME280;59071;42.138;24.768;2023-01-27T10:45:09;98694.19;;;5.18;82.97
71151;BME280;59071;42.138;24.768;2023-01-27T10:50:18;98675.72;;;5.60;81.79
71151;BME280;59071;42.138;24.768;2023-01-27T10:52:52;98676.72;;;5.52;81.94
71151;BME280;59071;42.138;24.768;2023-01-27T10:55:24;98674.94;;;5.73;80.97
71151;BME280;59071;42.138;24.768;2023-01-27T10:58:12;98686.66;;;5.57;81.54
71151;BME280;59071;42.138;24.768;2023-01-27T11:05:48;98672.72;;;5.28;83.08
71151;BME280;59071;42.138;24.768;2023-01-27T11:08:15;98666.06;;;5.87;82.14
71151;BME280;59071;42.138;24.768;2023-01-27T11:10:49;98653.53;;;5.47;81.77
71151;BME280;59071;42.138;24.768;2023-01-27T11:13:35;98654.34;;;5.48;83.19
71151;BME280;59071;42.138;24.768;2023-01-27T11:16:01;98647.72;;;5.65;82.22
71151;BME280;59071;42.138;24.768;2023-01-27T11:18:28;98636.66;;;5.97;80.74
71151;BME280;59071;42.138;24.768;2023-01-27T11:20:55;98646.03;;;6.33;78.85
71151;BME280;59071;42.138;24.768;2023-01-27T11:23:31;98641.34;;;6.15;79.66
71151;BME280;59071;42.138;24.768;2023-01-27T11:33:59;98653.88;;;5.93;82.79
71151;BME280;59071;42.138;24.768;2023-01-27T11:36:29;98659.97;;;5.93;81.13
71151;BME280;59071;42.138;24.768;2023-01-27T11:38:54;98655.31;;;5.95;81.84
71151;BME280;59071;42.138;24.768;2023-01-27T11:41:22;98659.03;;;5.59;81.90
71151;BME280;59071;42.138;24.768;2023-01-27T11:43:47;98657.72;;;5.83;81.87
71151;BME280;59071;42.138;24.768;2023-01-27T11:46:15;98655.72;;;5.37;84.16
71151;BME280;59071;42.138;24.768;2023-01-27T11:48:42;98647.63;;;5.39;83.76
71151;BME280;59071;42.138;24.768;2023-01-27T11:51:16;98639.22;;;5.83;82.46
71151;BME280;59071;42.138;24.768;2023-01-27T11:53:42;98649.41;;;5.86;82.02
71151;BME280;59071;42.138;24.768;2023-01-27T11:56:14;98636.47;;;6.18;80.58
71151;BME280;59071;42.138;24.768;2023-01-27T11:59:23;98643.25;;;5.73;82.34
71151;BME280;59071;42.138;24.768;2023-01-27T12:02:13;98640.75;;;5.58;83.38
71151;BME280;59071;42.138;24.768;2023-01-27T12:04:19;98638.47;;;6.03;82.01
71151;BME280;59071;42.138;24.768;2023-01-27T12:06:53;98637.25;;;5.99;81.91
71151;BME280;59071;42.138;24.768;2023-01-27T12:14:48;98628.25;;;5.80;82.40
71151;BME280;59071;42.138;24.768;2023-01-27T12:17:18;98639.94;;;6.39;80.53
71151;BME280;59071;42.138;24.768;2023-01-27T12:19:46;98623.28;;;6.38;79.78
71151;BME280;59071;42.138;24.768;2023-01-27T12:22:45;98621.38;;;5.92;81.47
71151;BME280;59071;42.138;24.768;2023-01-27T12:25:04;98629.09;;;5.87;82.44
71151;BME280;59071;42.138;24.768;2023-01-27T12:27:35;98626.19;;;5.62;82.75
71151;BME280;59071;42.138;24.768;2023-01-27T12:30:03;98611.34;;;5.61;82.54
71151;BME280;59071;42.138;24.768;2023-01-27T12:34:55;98604.28;;;5.68;82.04
71151;BME280;59071;42.138;24.768;2023-01-27T12:37:31;98605.09;;;5.82;81.62
71151;BME280;59071;42.138;24.768;2023-01-27T12:40:01;98612.88;;;6.17;80.72
71151;BME280;59071;42.138;24.768;2023-01-27T12:45:00;98610.03;;;6.05;81.31
71151;BME280;59071;42.138;24.768;2023-01-27T12:47:41;98607.00;;;6.21;80.54
71151;BME280;59071;42.138;24.768;2023-01-27T12:50:22;98605.97;;;5.96;81.40
71151;BME280;59071;42.138;24.768;2023-01-27T12:53:31;98607.53;;;5.90;81.55
71151;BME280;59071;42.138;24.768;2023-01-27T12:55:38;98608.03;;;6.14;81.19
71151;BME280;59071;42.138;24.768;2023-01-27T12:58:04;98609.84;;;6.33;80.32
71151;BME280;59071;42.138;24.768;2023-01-27T13:00:32;98614.13;;;6.41;79.09
71151;BME280;59071;42.138;24.768;2023-01-27T13:03:05;98607.22;;;6.20;79.80
71151;BME280;59071;42.138;24.768;2023-01-27T13:05:36;98619.19;;;6.36;79.75
71151;BME280;59071;42.138;24.768;2023-01-27T13:08:02;98610.44;;;6.49;78.86
71151;BME280;59071;42.138;24.768;2023-01-27T13:10:28;98601.28;;;6.78;76.93
71151;BME280;59071;42.138;24.768;2023-01-27T13:12:54;98605.56;;;6.65;78.13
71151;BME280;59071;42.138;24.768;2023-01-27T13:15:21;98605.97;;;6.62;78.06
71151;BME280;59071;42.138;24.768;2023-01-27T13:17:57;98600.44;;;6.84;77.40
71151;BME280;59071;42.138;24.768;2023-01-27T13:23:10;98609.78;;;6.93;76.58
71151;BME280;59071;42.138;24.768;2023-01-27T13:25:35;98602.31;;;6.17;79.83
71151;BME280;59071;42.138;24.768;2023-01-27T13:28:02;98605.16;;;6.49;78.77
71151;BME280;59071;42.138;24.768;2023-01-27T13:30:31;98619.81;;;6.64;77.59
71151;BME280;59071;42.138;24.768;2023-01-27T13:33:07;98624.22;;;6.97;77.27
71151;BME280;59071;42.138;24.768;2023-01-27T13:35:39;98624.44;;;6.76;77.32
71151;BME280;59071;42.138;24.768;2023-01-27T13:38:09;98607.41;;;5.98;80.63
71151;BME280;59071;42.138;24.768;2023-01-27T13:40:42;98610.25;;;6.43;79.13
71151;BME280;59071;42.138;24.768;2023-01-27T13:43:20;98601.09;;;6.53;78.65
71151;BME280;59071;42.138;24.768;2023-01-27T13:50:42;98602.09;;;6.65;78.02
71151;BME280;59071;42.138;24.768;2023-01-27T13:53:09;98609.41;;;6.70;76.77
71151;BME280;59071;42.138;24.768;2023-01-27T13:55:46;98615.94;;;6.20;79.26
71151;BME280;59071;42.138;24.768;2023-01-27T14:18:43;98644.69;;;5.75;80.64
71151;BME280;59071;42.138;24.768;2023-01-27T14:21:26;98636.97;;;5.74;80.20
71151;BME280;59071;42.138;24.768;2023-01-27T14:24:13;98635.75;;;5.76;79.45
71151;BME280;59071;42.138;24.768;2023-01-27T14:31:42;98632.41;;;6.16;78.03
71151;BME280;59071;42.138;24.768;2023-01-27T14:34:29;98628.28;;;5.93;79.21
71151;BME280;59071;42.138;24.768;2023-01-27T14:37:33;98629.09;;;5.87;79.36
71151;BME280;59071;42.138;24.768;2023-01-27T14:47:37;98635.47;;;6.33;78.14
71151;BME280;59071;42.138;24.768;2023-01-27T14:50:43;98610.88;;;6.12;77.48
71151;BME280;59071;42.138;24.768;2023-01-27T15:10:55;98639.94;;;6.05;78.57
71151;BME280;59071;42.138;24.768;2023-01-27T15:21:26;98651.50;;;6.04;78.29
71151;BME280;59071;42.138;24.768;2023-01-27T15:26:22;98660.16;;;5.92;78.21
71151;BME280;59071;42.138;24.768;2023-01-27T15:28:48;98657.09;;;5.88;78.65
71151;BME280;59071;42.138;24.768;2023-01-27T15:36:15;98654.00;;;5.71;78.77
71151;BME280;59071;42.138;24.768;2023-01-27T15:38:41;98649.00;;;5.90;78.08